Time;durP1;ratioP1;P1;durP2;ratioP2;P2;SDS_P1;SDS_P2;PMS_P1;PMS_P2;Temp;Humidity;BMP_temperature;BMP_pressure;BME280_temperature;BME280_humidity;BME280_pressure;Samples;Min_cycle;Max_cycle;Signal;HPM_P1;HPM_P2
2023/07/29 00:01:56;;;;;;;5.53;3.07;;;17.60;99.90;;;;;;5046510;28;20966;-72
2023/07/29 00:04:41;;;;;;;9.20;3.30;;;17.60;99.90;;;;;;5048442;28;20540;-73
2023/07/29 00:07:27;;;;;;;5.03;2.60;;;17.70;99.90;;;;;;5046659;28;21042;-72
2023/07/29 00:10:14;;;;;;;6.43;2.90;;;17.70;99.90;;;;;;5046591;28;20450;-72
2023/07/29 00:13:00;;;;;;;8.93;2.73;;;17.70;99.90;;;;;;5044702;28;20934;-72
2023/07/29 00:15:45;;;;;;;4.20;2.57;;;17.70;99.90;;;;;;5047205;28;20730;-72
2023/07/29 00:18:31;;;;;;;7.33;2.40;;;17.80;99.90;;;;;;5045411;28;20451;-73
2023/07/29 00:21:17;;;;;;;5.30;2.70;;;17.80;99.90;;;;;;5045942;28;21150;-73
2023/07/29 00:24:02;;;;;;;3.03;2.50;;;17.80;99.90;;;;;;5046190;28;20471;-72
2023/07/29 00:26:49;;;;;;;4.33;2.70;;;17.90;99.90;;;;;;5045075;28;20442;-72
2023/07/29 00:29:35;;;;;;;4.80;2.50;;;17.90;99.90;;;;;;5046980;28;20568;-72
2023/07/29 00:32:20;;;;;;;6.20;2.37;;;17.90;99.90;;;;;;5050860;28;20489;-73
2023/07/29 00:35:07;;;;;;;6.73;2.30;;;17.90;99.90;;;;;;5048001;28;20448;-73
2023/07/29 00:37:53;;;;;;;4.07;2.73;;;17.80;99.90;;;;;;5041806;28;21095;-73
2023/07/29 00:40:38;;;;;;;6.73;2.60;;;17.80;99.90;;;;;;5047908;28;20547;-72
2023/07/29 00:43:25;;;;;;;4.13;2.47;;;17.90;99.90;;;;;;5046105;28;20860;-72
2023/07/29 00:46:12;;;;;;;4.87;2.60;;;17.80;99.90;;;;;;5049750;28;20487;-72
2023/07/29 00:48:58;;;;;;;8.23;3.00;;;17.90;99.90;;;;;;5066619;22;20571;-72
2023/07/29 00:51:43;;;;;;;6.77;2.63;;;17.80;99.90;;;;;;5052576;28;20993;-72
2023/07/29 00:54:29;;;;;;;5.67;2.67;;;17.90;99.90;;;;;;5051609;28;20425;-72
2023/07/29 00:57:16;;;;;;;4.60;2.53;;;17.90;99.90;;;;;;5053015;28;20426;-73
2023/07/29 01:00:04;;;;;;;9.40;2.43;;;17.90;99.90;;;;;;5052776;28;20441;-72
2023/07/29 01:02:49;;;;;;;5.40;2.23;;;17.90;99.90;;;;;;5052437;28;20448;-73
2023/07/29 01:05:51;;;;;;;3.93;2.77;;;17.90;99.90;;;;;;5054222;28;20471;-73
2023/07/29 01:08:47;;;;;;;3.23;2.60;;;17.90;99.90;;;;;;5052061;28;21125;-74
2023/07/29 01:11:42;;;;;;;5.40;2.37;;;17.90;99.90;;;;;;5052181;28;20559;-73
2023/07/29 01:14:35;;;;;;;8.83;3.00;;;17.90;99.90;;;;;;5053975;28;20487;-73
2023/07/29 01:17:27;;;;;;;11.70;3.63;;;17.90;99.90;;;;;;5051032;28;20841;-74
2023/07/29 01:20:17;;;;;;;6.53;2.80;;;17.80;99.90;;;;;;5052822;28;20989;-73
2023/07/29 01:23:02;;;;;;;8.53;3.47;;;17.80;99.90;;;;;;5051494;28;20829;-74
2023/07/29 01:25:49;;;;;;;4.57;3.23;;;17.80;99.90;;;;;;5053732;28;20455;-74
2023/07/29 01:28:34;;;;;;;16.07;3.37;;;17.80;99.90;;;;;;5051457;28;20417;-74
2023/07/29 01:31:28;;;;;;;5.00;3.00;;;17.80;99.90;;;;;;5053565;28;20527;-74
2023/07/29 01:34:21;;;;;;;6.00;3.50;;;17.80;99.90;;;;;;5053633;28;20450;-74
2023/07/29 01:37:10;;;;;;;19.03;3.70;;;17.80;99.90;;;;;;5047580;28;20448;-74
2023/07/29 01:39:59;;;;;;;6.93;3.20;;;17.80;99.90;;;;;;5052298;28;20442;-74
2023/07/29 01:42:47;;;;;;;3.60;3.00;;;17.80;99.90;;;;;;5051396;28;20459;-72
2023/07/29 01:45:35;;;;;;;7.40;3.10;;;17.90;99.90;;;;;;5051078;28;21580;-72
2023/07/29 01:48:20;;;;;;;3.10;2.57;;;17.90;99.90;;;;;;5051888;28;20931;-73
2023/07/29 01:51:06;;;;;;;4.73;2.90;;;17.90;99.90;;;;;;5053995;28;21061;-73
2023/07/29 01:53:52;;;;;;;3.93;3.17;;;17.90;99.90;;;;;;5051324;28;20450;-73
2023/07/29 01:56:37;;;;;;;4.30;2.90;;;17.90;99.90;;;;;;5049055;28;20513;-73
2023/07/29 01:59:24;;;;;;;5.07;3.57;;;17.90;99.90;;;;;;5050059;28;20461;-73
2023/07/29 02:02:09;;;;;;;10.47;3.37;;;18.00;99.90;;;;;;5050095;28;20430;-73
2023/07/29 02:04:55;;;;;;;5.37;3.90;;;17.90;99.90;;;;;;5050931;28;20549;-72
2023/07/29 02:07:41;;;;;;;9.30;3.17;;;17.90;99.90;;;;;;5049883;28;20482;-73
2023/07/29 02:10:27;;;;;;;11.10;4.13;;;18.00;99.90;;;;;;5050871;28;20990;-72
2023/07/29 02:13:12;;;;;;;7.67;4.10;;;18.00;99.90;;;;;;5051810;28;20931;-72
2023/07/29 02:15:59;;;;;;;4.03;3.13;;;18.00;99.90;;;;;;5050648;28;20422;-72
2023/07/29 02:18:44;;;;;;;4.23;3.40;;;18.00;99.90;;;;;;5050548;28;20494;-73
2023/07/29 02:21:30;;;;;;;7.80;3.20;;;18.00;99.90;;;;;;5052767;28;20422;-73
2023/07/29 02:24:16;;;;;;;6.70;3.30;;;18.00;99.90;;;;;;5050493;28;20981;-73
2023/07/29 02:27:01;;;;;;;13.93;3.10;;;18.00;99.90;;;;;;5050837;28;21124;-76
2023/07/29 02:29:47;;;;;;;5.20;3.13;;;18.00;99.90;;;;;;5050526;28;20507;-74
2023/07/29 02:32:33;;;;;;;9.53;3.60;;;18.00;99.90;;;;;;5054269;28;20459;-73
2023/07/29 02:35:19;;;;;;;5.93;2.80;;;18.00;99.90;;;;;;5051293;28;20417;-76
2023/07/29 02:38:05;;;;;;;6.10;3.40;;;18.00;99.90;;;;;;5047575;28;20449;-76
2023/07/29 02:40:50;;;;;;;5.17;3.03;;;18.00;99.90;;;;;;5050597;28;20459;-74
2023/07/29 02:43:36;;;;;;;12.63;2.73;;;18.00;99.90;;;;;;5053615;28;20470;-74
2023/07/29 02:46:22;;;;;;;5.80;2.70;;;18.10;99.90;;;;;;5053094;28;20506;-73
2023/07/29 02:49:09;;;;;;;7.13;2.23;;;18.10;99.90;;;;;;5058382;28;21065;-74
2023/07/29 02:51:54;;;;;;;2.80;2.50;;;18.00;99.90;;;;;;5051115;28;20426;-74
2023/07/29 02:54:39;;;;;;;4.20;2.50;;;18.10;99.90;;;;;;5050971;28;20437;-72
2023/07/29 02:57:25;;;;;;;4.10;2.30;;;18.10;99.90;;;;;;5052427;28;20478;-73
2023/07/29 03:00:12;;;;;;;9.03;3.63;;;18.10;99.90;;;;;;5051234;28;20580;-75
2023/07/29 03:02:57;;;;;;;14.07;2.90;;;18.10;99.90;;;;;;5052912;28;20493;-74
2023/07/29 03:05:44;;;;;;;6.10;2.53;;;18.10;99.90;;;;;;5052193;28;20588;-74
2023/07/29 03:08:30;;;;;;;8.10;2.40;;;18.10;99.90;;;;;;5049774;28;20963;-73
2023/07/29 03:11:17;;;;;;;3.43;2.53;;;18.10;99.90;;;;;;5048839;28;21068;-71
2023/07/29 03:14:02;;;;;;;2.90;2.60;;;18.10;99.90;;;;;;5050916;28;20585;-73
2023/07/29 03:16:48;;;;;;;10.63;2.43;;;18.20;99.90;;;;;;5049183;28;20503;-75
2023/07/29 03:19:33;;;;;;;6.73;2.67;;;18.20;99.90;;;;;;5047927;28;20839;-73
2023/07/29 03:22:20;;;;;;;4.27;2.97;;;18.20;99.90;;;;;;5048407;28;20791;-75
2023/07/29 03:25:06;;;;;;;3.27;2.40;;;18.10;99.90;;;;;;5051314;28;20422;-73
2023/07/29 03:27:52;;;;;;;2.90;2.30;;;18.20;99.90;;;;;;5048211;28;20528;-74
2023/07/29 03:30:38;;;;;;;6.97;2.60;;;18.10;99.90;;;;;;5050034;28;20464;-74
2023/07/29 03:33:23;;;;;;;8.33;3.07;;;18.10;99.90;;;;;;5049199;28;20899;-74
2023/07/29 03:36:09;;;;;;;6.00;2.40;;;18.00;99.90;;;;;;5048444;28;20954;-74
2023/07/29 03:38:56;;;;;;;5.50;2.80;;;18.10;99.90;;;;;;5048699;28;20446;-73
2023/07/29 03:41:41;;;;;;;8.80;2.37;;;18.10;99.90;;;;;;5051505;28;20698;-74
2023/07/29 03:44:27;;;;;;;9.00;4.57;;;18.10;99.90;;;;;;5051510;28;20605;-73
2023/07/29 03:47:12;;;;;;;8.07;3.00;;;18.10;99.90;;;;;;5050665;28;21049;-73
2023/07/29 03:49:58;;;;;;;3.47;2.47;;;18.10;99.90;;;;;;5057986;28;20609;-73
2023/07/29 03:52:44;;;;;;;2.80;2.20;;;18.10;99.90;;;;;;5049986;28;20460;-74
2023/07/29 03:55:31;;;;;;;7.30;3.63;;;18.10;99.90;;;;;;5046893;28;20429;-74
2023/07/29 03:58:16;;;;;;;7.97;2.37;;;18.10;99.90;;;;;;5051770;28;20442;-73
2023/07/29 04:01:02;;;;;;;3.90;2.83;;;18.10;99.90;;;;;;5050337;28;20455;-75
2023/07/29 04:03:47;;;;;;;3.07;2.20;;;18.10;99.90;;;;;;5048043;28;21007;-74
2023/07/29 04:06:33;;;;;;;8.43;2.20;;;18.10;99.90;;;;;;5054615;28;20471;-73
2023/07/29 04:09:19;;;;;;;8.63;2.23;;;18.10;99.90;;;;;;5049775;28;20858;-73
2023/07/29 04:12:06;;;;;;;3.30;2.50;;;18.10;99.90;;;;;;5048878;28;20619;-76
2023/07/29 04:14:52;;;;;;;3.77;2.27;;;18.10;99.90;;;;;;5049556;28;20421;-76
2023/07/29 04:17:37;;;;;;;4.20;2.60;;;18.10;99.90;;;;;;5047630;28;20459;-74
2023/07/29 04:20:23;;;;;;;5.47;2.50;;;18.10;99.90;;;;;;5047845;28;20492;-72
2023/07/29 04:23:09;;;;;;;3.60;2.90;;;18.10;99.90;;;;;;5052032;28;20507;-77
2023/07/29 04:25:54;;;;;;;14.33;2.20;;;18.20;99.90;;;;;;5050805;28;20464;-76
2023/07/29 04:28:41;;;;;;;2.83;2.43;;;18.20;99.90;;;;;;5051660;28;20505;-76
2023/07/29 04:31:27;;;;;;;4.17;2.23;;;18.20;99.90;;;;;;5052490;28;20444;-73
2023/07/29 04:34:12;;;;;;;5.77;2.60;;;18.30;99.90;;;;;;5052812;28;20497;-74
2023/07/29 04:36:58;;;;;;;6.37;2.20;;;18.30;99.90;;;;;;5046414;28;20794;-73
2023/07/29 04:39:44;;;;;;;3.53;2.70;;;18.30;99.90;;;;;;5049149;28;20563;-74
2023/07/29 04:42:29;;;;;;;6.03;2.33;;;18.30;99.90;;;;;;5049022;28;20699;-74
2023/07/29 04:45:17;;;;;;;4.20;2.10;;;18.30;99.90;;;;;;5052865;28;20442;-73
2023/07/29 04:48:02;;;;;;;6.17;2.53;;;18.30;99.90;;;;;;5049584;28;20504;-74
2023/07/29 04:50:47;;;;;;;9.10;3.30;;;18.30;99.90;;;;;;5055201;28;21012;-72
2023/07/29 04:53:34;;;;;;;3.90;2.47;;;18.30;99.90;;;;;;5053890;28;20447;-73
2023/07/29 04:56:20;;;;;;;4.47;2.33;;;18.40;99.90;;;;;;5050777;28;20430;-72
2023/07/29 04:59:08;;;;;;;7.70;2.50;;;18.40;99.90;;;;;;5050760;28;20466;-72
2023/07/29 05:01:54;;;;;;;3.50;2.20;;;18.40;99.90;;;;;;5049060;28;22639;-73
2023/07/29 05:04:40;;;;;;;8.43;2.27;;;18.40;99.90;;;;;;5053064;28;20550;-73
2023/07/29 05:07:25;;;;;;;2.87;2.50;;;18.40;99.90;;;;;;5045741;28;20809;-73
2023/07/29 05:10:11;;;;;;;6.80;2.87;;;18.40;99.90;;;;;;5047741;28;20491;-72
2023/07/29 05:12:56;;;;;;;7.27;3.20;;;18.50;99.90;;;;;;5048024;28;20458;-72
2023/07/29 05:15:42;;;;;;;4.20;2.50;;;18.50;99.90;;;;;;5047054;28;20453;-73
2023/07/29 05:18:29;;;;;;;2.87;2.30;;;18.50;99.90;;;;;;5048039;28;20438;-73
2023/07/29 05:21:15;;;;;;;4.80;4.20;;;18.50;99.90;;;;;;5047367;28;20447;-72
2023/07/29 05:24:00;;;;;;;8.47;3.57;;;18.50;99.90;;;;;;5046965;28;20523;-72
2023/07/29 05:26:46;;;;;;;5.50;3.10;;;18.60;99.90;;;;;;5047634;28;20995;-73
2023/07/29 05:29:31;;;;;;;4.03;3.00;;;18.60;99.90;;;;;;5047980;28;20587;-73
2023/07/29 05:32:17;;;;;;;4.93;2.40;;;18.60;99.90;;;;;;5059572;28;20423;-74
2023/07/29 05:35:04;;;;;;;5.80;3.40;;;18.70;99.90;;;;;;5052973;28;21014;-73
2023/07/29 05:37:50;;;;;;;4.00;2.63;;;18.70;99.90;;;;;;5053098;28;20879;-73
2023/07/29 05:40:35;;;;;;;5.23;3.17;;;18.80;99.90;;;;;;5052202;28;20843;-74
2023/07/29 05:43:21;;;;;;;6.03;3.23;;;18.80;99.90;;;;;;5051447;28;20413;-73
2023/07/29 05:46:06;;;;;;;3.87;2.73;;;18.80;99.90;;;;;;5054778;28;20483;-74
2023/07/29 05:48:52;;;;;;;2.50;2.00;;;18.80;99.90;;;;;;5055710;28;20494;-74
2023/07/29 05:51:39;;;;;;;2.77;1.80;;;18.80;99.90;;;;;;5064390;28;20915;-74
2023/07/29 05:54:25;;;;;;;3.30;2.67;;;18.90;99.90;;;;;;5056243;28;20451;-74
2023/07/29 05:57:11;;;;;;;2.50;2.20;;;18.90;99.90;;;;;;5056393;28;20987;-73
2023/07/29 05:59:56;;;;;;;2.70;1.67;;;18.90;99.90;;;;;;5053988;28;20612;-74
2023/07/29 06:02:41;;;;;;;6.13;1.57;;;18.90;99.90;;;;;;5052836;28;21019;-74
2023/07/29 06:05:27;;;;;;;4.67;2.90;;;19.00;99.90;;;;;;5051929;28;20446;-74
2023/07/29 06:08:14;;;;;;;2.57;2.10;;;19.00;99.90;;;;;;5053204;28;20905;-74
2023/07/29 06:11:00;;;;;;;4.70;2.27;;;19.00;99.90;;;;;;5052079;28;20488;-73
2023/07/29 06:13:47;;;;;;;5.60;2.13;;;19.00;99.90;;;;;;5052794;28;20419;-72
2023/07/29 06:16:32;;;;;;;3.30;1.93;;;19.00;99.90;;;;;;5052489;28;20443;-73
2023/07/29 06:19:19;;;;;;;3.40;1.83;;;19.10;99.90;;;;;;5052303;28;20529;-73
2023/07/29 06:22:05;;;;;;;3.73;1.57;;;19.00;99.90;;;;;;5050470;28;20968;-75
2023/07/29 06:24:52;;;;;;;2.50;1.97;;;19.10;99.90;;;;;;5052511;28;20443;-75
2023/07/29 06:27:37;;;;;;;4.87;1.60;;;19.10;99.90;;;;;;5050723;28;20990;-74
2023/07/29 06:30:23;;;;;;;2.67;1.90;;;19.20;99.90;;;;;;5050998;28;20438;-73
2023/07/29 06:33:09;;;;;;;3.33;2.53;;;19.30;99.90;;;;;;5050914;28;20415;-74
2023/07/29 06:35:54;;;;;;;8.50;2.20;;;19.30;99.90;;;;;;5052562;28;20464;-75
2023/07/29 06:38:40;;;;;;;3.00;1.67;;;19.30;99.90;;;;;;5051745;28;20423;-74
2023/07/29 06:41:27;;;;;;;2.20;1.70;;;19.40;99.90;;;;;;5049622;28;20482;-72
2023/07/29 06:44:12;;;;;;;2.10;1.70;;;19.40;99.90;;;;;;5050731;28;20606;-74
2023/07/29 06:46:58;;;;;;;2.53;1.83;;;19.50;99.90;;;;;;5048368;28;20447;-73
2023/07/29 06:49:44;;;;;;;2.63;1.70;;;19.50;99.90;;;;;;5066141;22;20558;-72
2023/07/29 06:52:29;;;;;;;3.20;1.60;;;19.60;99.90;;;;;;5051007;28;20512;-75
2023/07/29 06:55:15;;;;;;;2.13;1.13;;;19.60;99.90;;;;;;5048747;28;21065;-73
2023/07/29 06:58:02;;;;;;;2.27;1.17;;;19.70;99.90;;;;;;5045910;28;20410;-74
2023/07/29 07:00:48;;;;;;;3.03;1.60;;;19.70;99.90;;;;;;5045426;28;20992;-73
2023/07/29 07:03:33;;;;;;;3.33;1.43;;;19.70;99.90;;;;;;5053162;28;20507;-75
2023/07/29 07:06:18;;;;;;;3.60;2.27;;;19.80;99.90;;;;;;5045356;28;20416;-75
2023/07/29 07:09:04;;;;;;;3.90;2.17;;;19.70;99.90;;;;;;5047446;28;20481;-74
2023/07/29 07:11:50;;;;;;;5.10;3.13;;;19.70;99.90;;;;;;5045758;28;20421;-74
2023/07/29 07:14:37;;;;;;;3.17;2.70;;;19.80;99.90;;;;;;5046614;28;20497;-75
2023/07/29 07:17:23;;;;;;;4.97;3.07;;;19.90;99.90;;;;;;5045909;28;20453;-75
2023/07/29 07:20:09;;;;;;;4.80;3.13;;;20.00;99.90;;;;;;5044384;28;20506;-75
2023/07/29 07:22:54;;;;;;;3.93;2.30;;;20.10;99.90;;;;;;5044982;28;20471;-75
2023/07/29 07:25:39;;;;;;;4.10;2.40;;;20.20;99.90;;;;;;5049830;28;20433;-75
2023/07/29 07:28:25;;;;;;;4.57;2.63;;;20.20;99.90;;;;;;5044071;28;20491;-75
2023/07/29 07:31:12;;;;;;;3.20;2.90;;;20.30;99.90;;;;;;5049263;28;20493;-74
2023/07/29 07:33:58;;;;;;;3.33;2.53;;;20.30;99.90;;;;;;5043107;28;20471;-75
2023/07/29 07:36:43;;;;;;;2.90;2.40;;;20.30;99.90;;;;;;5044254;28;20430;-74
2023/07/29 07:39:29;;;;;;;12.30;2.67;;;20.30;99.90;;;;;;5046522;28;20491;-74
2023/07/29 07:42:14;;;;;;;2.97;2.20;;;20.30;99.90;;;;;;5044732;28;20466;-74
2023/07/29 07:45:00;;;;;;;3.40;2.63;;;20.30;99.90;;;;;;5045405;28;20829;-74
2023/07/29 07:47:47;;;;;;;3.43;2.50;;;20.40;99.90;;;;;;5045819;28;20480;-75
2023/07/29 07:50:33;;;;;;;4.23;2.57;;;20.50;99.90;;;;;;5044197;28;20647;-75
2023/07/29 07:53:19;;;;;;;3.70;2.63;;;20.50;99.90;;;;;;5044216;28;20449;-74
2023/07/29 07:56:05;;;;;;;4.60;2.90;;;20.40;99.90;;;;;;5045097;28;20443;-75
2023/07/29 07:58:50;;;;;;;6.10;2.70;;;20.40;99.90;;;;;;5047483;28;20967;-75
2023/07/29 08:01:36;;;;;;;3.53;2.70;;;20.40;99.90;;;;;;5045471;28;20438;-74
2023/07/29 08:04:23;;;;;;;4.60;3.03;;;20.30;99.90;;;;;;5042864;28;20580;-74
2023/07/29 08:07:08;;;;;;;3.60;2.90;;;20.30;99.90;;;;;;5043403;28;21062;-74
2023/07/29 08:09:54;;;;;;;9.50;3.57;;;20.30;99.90;;;;;;5044647;28;20431;-75
2023/07/29 08:12:39;;;;;;;5.27;3.90;;;20.10;99.90;;;;;;5043245;28;20438;-74
2023/07/29 08:15:25;;;;;;;4.80;3.73;;;20.10;99.90;;;;;;5044289;28;20445;-75
2023/07/29 08:18:11;;;;;;;6.80;4.20;;;20.10;99.90;;;;;;5045224;28;20457;-75
2023/07/29 08:21:02;;;;;;;10.93;3.83;;;20.10;99.90;;;;;;5045346;28;21100;-74
2023/07/29 08:23:48;;;;;;;7.53;4.53;;;20.10;99.90;;;;;;5044562;28;20419;-75
2023/07/29 08:26:33;;;;;;;6.33;4.13;;;20.10;99.90;;;;;;5045480;28;20509;-74
2023/07/29 08:29:19;;;;;;;4.30;3.77;;;20.10;99.90;;;;;;5043528;28;21057;-75
2023/07/29 08:32:05;;;;;;;4.80;4.20;;;20.20;99.90;;;;;;5047964;28;20539;-74
2023/07/29 08:34:50;;;;;;;4.30;3.70;;;20.20;99.90;;;;;;5045186;28;20804;-75
2023/07/29 08:37:37;;;;;;;7.37;4.60;;;20.30;99.90;;;;;;5041784;28;20617;-75
2023/07/29 08:40:30;;;;;;;6.73;3.73;;;20.30;99.90;;;;;;5044148;28;20521;-74
2023/07/29 08:43:19;;;;;;;4.90;3.70;;;20.30;99.90;;;;;;5044063;28;20810;-75
2023/07/29 08:46:06;;;;;;;11.50;4.27;;;20.30;99.90;;;;;;5042774;28;20503;-75
2023/07/29 08:48:52;;;;;;;5.57;3.80;;;20.30;99.90;;;;;;5043309;28;21040;-74
2023/07/29 08:51:39;;;;;;;6.03;3.60;;;20.30;99.90;;;;;;5055369;28;20483;-75
2023/07/29 08:54:25;;;;;;;6.50;3.30;;;20.30;99.90;;;;;;5044729;28;20928;-74
2023/07/29 08:57:11;;;;;;;6.60;3.43;;;20.30;99.90;;;;;;5043439;28;20526;-74
2023/07/29 08:59:58;;;;;;;4.00;3.47;;;20.20;99.90;;;;;;5044214;28;20479;-75
2023/07/29 09:02:44;;;;;;;5.57;3.87;;;20.30;99.90;;;;;;5048031;28;20984;-74
2023/07/29 09:05:29;;;;;;;6.50;3.60;;;20.50;99.90;;;;;;5046866;28;20451;-74
2023/07/29 09:08:15;;;;;;;5.00;3.03;;;20.60;99.90;;;;;;5048344;28;20570;-75
2023/07/29 09:11:02;;;;;;;7.77;3.83;;;20.70;99.90;;;;;;5049787;28;20532;-74
2023/07/29 09:13:48;;;;;;;6.70;3.80;;;20.70;99.90;;;;;;5049384;28;20422;-74
2023/07/29 09:16:34;;;;;;;3.50;3.20;;;20.80;99.90;;;;;;5050561;28;20452;-74
2023/07/29 09:19:19;;;;;;;8.20;3.87;;;20.90;99.90;;;;;;5048360;28;20813;-75
2023/07/29 09:22:06;;;;;;;7.67;3.80;;;20.90;99.90;;;;;;5048212;28;20460;-74
2023/07/29 09:24:52;;;;;;;4.20;3.20;;;21.00;99.90;;;;;;5052627;28;20793;-74
2023/07/29 09:27:39;;;;;;;5.80;3.30;;;21.00;99.90;;;;;;5047720;28;20466;-74
2023/07/29 09:30:25;;;;;;;4.60;3.00;;;21.20;99.90;;;;;;5049907;28;20521;-75
2023/07/29 09:33:10;;;;;;;7.13;3.50;;;21.30;99.90;;;;;;5048746;28;20449;-75
2023/07/29 09:35:56;;;;;;;6.03;2.90;;;21.20;99.90;;;;;;5049306;28;20449;-75
2023/07/29 09:38:42;;;;;;;5.47;3.50;;;21.10;99.90;;;;;;5053384;28;20454;-74
2023/07/29 09:41:30;;;;;;;10.13;3.30;;;21.10;99.90;;;;;;5047583;28;20589;-74
2023/07/29 09:44:17;;;;;;;7.20;3.00;;;21.10;99.90;;;;;;5046367;28;20452;-73
2023/07/29 09:47:03;;;;;;;4.73;3.40;;;21.00;99.90;;;;;;5048131;28;20450;-74
2023/07/29 09:49:48;;;;;;;3.80;2.63;;;21.10;99.90;;;;;;5050939;28;20451;-74
2023/07/29 09:52:34;;;;;;;3.77;2.43;;;21.30;99.90;;;;;;5048065;28;20487;-73
2023/07/29 09:55:20;;;;;;;3.20;2.90;;;21.30;99.90;;;;;;5048103;28;20448;-74
2023/07/29 09:58:08;;;;;;;5.20;3.63;;;21.40;99.90;;;;;;5048406;28;20468;-73
2023/07/29 10:00:55;;;;;;;4.63;3.70;;;21.60;99.90;;;;;;5046644;28;20446;-73
2023/07/29 10:03:41;;;;;;;7.30;3.50;;;21.80;99.90;;;;;;5051336;28;20569;-74
2023/07/29 10:06:27;;;;;;;8.27;3.57;;;22.00;99.90;;;;;;5049177;28;20461;-73
2023/07/29 10:09:13;;;;;;;5.07;2.33;;;22.10;99.90;;;;;;5046330;28;20454;-74
2023/07/29 10:11:59;;;;;;;5.83;2.53;;;22.30;99.90;;;;;;5047825;28;20572;-73
2023/07/29 10:14:46;;;;;;;3.50;2.70;;;22.30;99.90;;;;;;5049958;28;20463;-73
2023/07/29 10:17:35;;;;;;;3.40;2.90;;;22.20;99.90;;;;;;5048865;28;20433;-73
2023/07/29 10:20:21;;;;;;;3.43;2.37;;;22.10;99.90;;;;;;5048079;28;20435;-74
2023/07/29 10:23:09;;;;;;;3.70;2.90;;;22.10;99.90;;;;;;5046167;28;20483;-73
2023/07/29 10:26:03;;;;;;;4.97;2.80;;;21.90;99.90;;;;;;5046055;28;20511;-73
2023/07/29 10:28:49;;;;;;;6.10;2.87;;;21.90;99.90;;;;;;5045040;28;20580;-73
2023/07/29 10:31:36;;;;;;;5.13;3.03;;;21.80;99.90;;;;;;5045396;28;21072;-74
2023/07/29 10:34:23;;;;;;;9.87;6.63;;;21.70;99.90;;;;;;5044371;28;20495;-74
2023/07/29 10:37:09;;;;;;;4.60;3.10;;;21.70;99.90;;;;;;5043654;28;20865;-74
2023/07/29 10:39:55;;;;;;;3.50;3.00;;;21.60;99.90;;;;;;5047544;28;21821;-74
2023/07/29 10:43:01;;;;;;;6.20;2.77;;;21.70;99.90;;;;;;5048335;28;20443;-74
2023/07/29 10:45:46;;;;;;;4.10;3.00;;;21.80;99.90;;;;;;5044960;28;20461;-75
2023/07/29 10:48:42;;;;;;;5.30;3.83;;;22.10;99.90;;;;;;5041611;28;20524;-73
2023/07/29 10:51:32;;;;;;;3.90;3.20;;;22.40;99.90;;;;;;5041107;28;20913;-75
2023/07/29 10:54:18;;;;;;;4.37;3.40;;;22.60;99.90;;;;;;5049320;28;20495;-75
2023/07/29 10:57:04;;;;;;;5.73;2.70;;;22.80;99.90;;;;;;5046567;28;20443;-74
2023/07/29 10:59:55;;;;;;;3.40;2.60;;;22.80;99.90;;;;;;5042403;28;20573;-72
2023/07/29 11:02:41;;;;;;;3.53;2.57;;;22.70;99.90;;;;;;5049038;28;20930;-73
2023/07/29 11:05:26;;;;;;;4.20;3.00;;;22.80;99.90;;;;;;5042006;28;20961;-73
2023/07/29 11:08:21;;;;;;;3.90;2.77;;;22.90;99.90;;;;;;5039710;28;20891;-72
2023/07/29 11:11:08;;;;;;;4.93;3.40;;;22.90;99.90;;;;;;5040261;28;20992;-73
2023/07/29 11:13:54;;;;;;;3.80;2.90;;;22.90;99.90;;;;;;5044616;28;20488;-72
2023/07/29 11:16:39;;;;;;;5.00;3.07;;;22.80;99.90;;;;;;5044103;28;20471;-73
2023/07/29 11:19:25;;;;;;;5.43;2.40;;;22.60;99.90;;;;;;5042753;28;20469;-72
2023/07/29 11:22:11;;;;;;;2.93;2.37;;;22.50;99.90;;;;;;5038868;28;20450;-74
2023/07/29 11:24:58;;;;;;;6.43;3.17;;;22.50;99.90;;;;;;5044482;28;20452;-74
2023/07/29 11:27:44;;;;;;;11.50;2.60;;;22.50;99.90;;;;;;5042609;28;22799;-74
2023/07/29 11:30:30;;;;;;;11.63;2.93;;;22.60;99.90;;;;;;5041954;28;20582;-73
2023/07/29 11:33:18;;;;;;;3.53;2.07;;;22.60;99.90;;;;;;5043528;28;20446;-74
2023/07/29 11:36:04;;;;;;;5.13;2.50;;;22.50;99.90;;;;;;5039272;28;21208;-73
2023/07/29 11:38:50;;;;;;;3.63;2.50;;;22.50;99.90;;;;;;5040926;28;20885;-74
2023/07/29 11:41:36;;;;;;;3.70;2.23;;;22.40;99.90;;;;;;5038301;28;20693;-73
2023/07/29 11:44:22;;;;;;;3.87;2.50;;;22.30;99.90;;;;;;5039178;28;20463;-73
2023/07/29 11:47:08;;;;;;;4.23;2.37;;;22.20;99.90;;;;;;5043214;28;20447;-74
2023/07/29 11:49:54;;;;;;;3.73;2.50;;;22.20;99.90;;;;;;5044408;28;20510;-73
2023/07/29 11:52:41;;;;;;;3.93;2.20;;;22.30;99.90;;;;;;5042700;28;20450;-73
2023/07/29 11:55:27;;;;;;;4.37;2.70;;;22.40;99.90;;;;;;5042048;28;21130;-74
2023/07/29 11:58:13;;;;;;;10.03;3.17;;;22.60;99.90;;;;;;5039840;28;20460;-74
2023/07/29 12:00:59;;;;;;;4.83;2.53;;;22.80;99.90;;;;;;5039342;28;20481;-73
2023/07/29 12:03:45;;;;;;;7.10;2.90;;;23.00;99.90;;;;;;5041696;28;20419;-74
2023/07/29 12:06:31;;;;;;;4.97;2.63;;;23.30;99.90;;;;;;5038044;28;20452;-74
2023/07/29 12:09:16;;;;;;;4.47;2.20;;;23.70;99.90;;;;;;5038948;28;20621;-74
2023/07/29 12:12:02;;;;;;;5.07;1.90;;;24.00;99.90;;;;;;5040556;28;20452;-74
2023/07/29 12:14:49;;;;;;;11.43;2.60;;;24.00;99.90;;;;;;5041657;28;20445;-74
2023/07/29 12:17:40;;;;;;;4.07;2.50;;;24.00;99.90;;;;;;5038232;28;20443;-74
2023/07/29 12:20:27;;;;;;;4.50;2.50;;;24.00;99.90;;;;;;5039169;28;20621;-73
2023/07/29 12:23:12;;;;;;;6.40;2.20;;;23.90;99.90;;;;;;5041715;28;20467;-73
2023/07/29 12:25:58;;;;;;;3.10;1.87;;;23.80;99.90;;;;;;5038430;28;21042;-73
2023/07/29 12:28:47;;;;;;;5.90;1.83;;;23.70;99.90;;;;;;5038186;28;20455;-74
2023/07/29 12:31:33;;;;;;;4.30;1.83;;;23.60;99.90;;;;;;5041210;28;20456;-73
2023/07/29 12:34:20;;;;;;;4.70;2.00;;;23.70;99.90;;;;;;5037889;28;20438;-74
2023/07/29 12:37:07;;;;;;;4.57;2.20;;;23.80;99.90;;;;;;5033379;28;20488;-74
2023/07/29 12:39:52;;;;;;;2.57;1.60;;;24.00;99.90;;;;;;5037703;28;20456;-74
2023/07/29 12:42:38;;;;;;;3.70;1.70;;;24.10;99.90;;;;;;5045840;28;21098;-74
2023/07/29 12:45:26;;;;;;;6.20;2.00;;;24.10;99.90;;;;;;5046190;28;20443;-74
2023/07/29 12:48:13;;;;;;;5.60;1.83;;;24.00;99.90;;;;;;5041387;28;21102;-73
2023/07/29 12:50:58;;;;;;;3.43;1.70;;;24.00;99.90;;;;;;5047162;28;21564;-74
2023/07/29 12:53:44;;;;;;;4.53;2.00;;;23.90;99.90;;;;;;5045531;28;20998;-74
2023/07/29 12:56:30;;;;;;;2.70;1.90;;;23.90;99.90;;;;;;5041578;28;21295;-74
2023/07/29 12:59:16;;;;;;;4.57;2.03;;;24.00;99.90;;;;;;5044722;28;20489;-74
2023/07/29 13:02:01;;;;;;;3.00;1.70;;;24.00;99.90;;;;;;5042003;28;22046;-74
2023/07/29 13:04:48;;;;;;;4.80;1.83;;;24.00;99.90;;;;;;5042215;28;20968;-73
2023/07/29 13:07:34;;;;;;;3.00;1.90;;;24.10;99.90;;;;;;5042804;28;22526;-74
2023/07/29 13:10:19;;;;;;;3.80;1.80;;;24.10;99.90;;;;;;5042038;28;20478;-74
2023/07/29 13:13:05;;;;;;;4.30;2.20;;;24.10;99.90;;;;;;5041053;28;20466;-74
2023/07/29 13:15:51;;;;;;;5.77;1.73;;;24.30;99.90;;;;;;5045474;28;20450;-74
2023/07/29 13:18:36;;;;;;;3.23;1.57;;;24.60;99.90;;;;;;5042406;28;20967;-74
2023/07/29 13:21:23;;;;;;;4.67;1.70;;;24.80;94.60;;;;;;5042532;28;20608;-73
2023/07/29 13:24:09;;;;;;;2.40;1.43;;;25.10;93.80;;;;;;5042952;28;20472;-72
2023/07/29 13:26:55;;;;;;;4.23;1.80;;;25.30;84.30;;;;;;5045450;28;20497;-72
2023/07/29 13:29:41;;;;;;;6.90;1.77;;;25.50;70.20;;;;;;5043079;28;21165;-73
2023/07/29 13:32:26;;;;;;;3.40;1.70;;;25.80;79.20;;;;;;5048221;28;20464;-72
2023/07/29 13:35:12;;;;;;;6.63;1.60;;;26.00;72.30;;;;;;5043405;28;20609;-73
2023/07/29 13:37:59;;;;;;;2.70;1.90;;;25.90;60.70;;;;;;5043529;28;21242;-73
2023/07/29 13:40:45;;;;;;;3.47;1.73;;;25.80;63.80;;;;;;5041932;28;20429;-72
2023/07/29 13:43:30;;;;;;;16.70;2.20;;;25.80;76.40;;;;;;5045437;28;20597;-72
2023/07/29 13:46:16;;;;;;;3.90;2.33;;;25.80;58.40;;;;;;5045638;28;20458;-72
2023/07/29 13:49:03;;;;;;;2.70;1.67;;;25.70;56.90;;;;;;5044976;28;20560;-72
2023/07/29 13:51:48;;;;;;;2.17;1.30;;;25.70;55.40;;;;;;5043363;28;20478;-73
2023/07/29 13:54:35;;;;;;;3.37;1.60;;;25.90;62.50;;;;;;5050921;28;20514;-73
2023/07/29 13:57:21;;;;;;;5.10;1.90;;;26.10;52.70;;;;;;5045705;28;20531;-73
2023/07/29 14:00:08;;;;;;;3.10;2.23;;;26.20;49.60;;;;;;5045183;28;20523;-72
2023/07/29 14:02:53;;;;;;;2.80;1.80;;;26.40;52.90;;;;;;5044137;28;20451;-72
2023/07/29 14:05:39;;;;;;;4.53;2.00;;;26.20;57.20;;;;;;5045642;28;20595;-74
2023/07/29 14:08:24;;;;;;;3.87;1.93;;;26.30;59.70;;;;;;5049687;28;20445;-73
2023/07/29 14:11:11;;;;;;;2.93;1.73;;;26.40;61.20;;;;;;5041522;28;21073;-73
2023/07/29 14:13:57;;;;;;;3.10;1.90;;;26.40;52.50;;;;;;5049791;28;20451;-73
2023/07/29 14:16:42;;;;;;;5.33;2.90;;;26.30;48.50;;;;;;5042848;28;20449;-73
2023/07/29 14:19:28;;;;;;;4.87;3.30;;;26.00;51.00;;;;;;5047384;28;20467;-73
2023/07/29 14:22:13;;;;;;;4.30;2.40;;;26.10;62.20;;;;;;5040592;28;20474;-72
2023/07/29 14:24:59;;;;;;;4.40;2.50;;;26.00;52.20;;;;;;5045838;28;20443;-73